sensor_id;sensor_type;location;lat;lon;timestamp;temperature;humidity
5415;DHT22;2730;51.512;7.504;2022-12-22T06:00:30;9.50;99.90
5415;DHT22;2730;51.512;7.504;2022-12-22T06:02:58;9.50;99.90
5415;DHT22;2730;51.512;7.504;2022-12-22T06:05:25;9.40;99.90
5415;DHT22;2730;51.512;7.504;2022-12-22T06:07:51;9.50;99.90
5415;DHT22;2730;51.512;7.504;2022-12-22T06:10:18;9.60;99.90
5415;DHT22;2730;51.512;7.504;2022-12-22T06:12:45;9.50;99.90
5415;DHT22;2730;51.512;7.504;2022-12-22T06:15:13;9.50;99.90
5415;DHT22;2730;51.512;7.504;2022-12-22T06:17:42;9.50;99.90
5415;DHT22;2730;51.512;7.504;2022-12-22T06:20:09;9.50;99.90
5415;DHT22;2730;51.512;7.504;2022-12-22T06:22:36;9.50;99.90
5415;DHT22;2730;51.512;7.504;2022-12-22T06:25:04;9.60;99.90
5415;DHT22;2730;51.512;7.504;2022-12-22T06:27:31;9.50;99.90
5415;DHT22;2730;51.512;7.504;2022-12-22T06:29:58;9.60;99.90
5415;DHT22;2730;51.512;7.504;2022-12-22T06:32:24;9.60;99.90
5415;DHT22;2730;51.512;7.504;2022-12-22T06:34:53;9.60;99.90
5415;DHT22;2730;51.512;7.504;2022-12-22T06:37:19;9.50;99.90
5415;DHT22;2730;51.512;7.504;2022-12-22T06:39:46;9.60;99.90
5415;DHT22;2730;51.512;7.504;2022-12-22T06:42:13;9.60;99.90
5415;DHT22;2730;51.512;7.504;2022-12-22T06:44:57;9.60;99.90
5415;DHT22;2730;51.512;7.504;2022-12-22T06:47:24;9.60;99.90
5415;DHT22;2730;51.512;7.504;2022-12-22T06:49:52;9.60;99.90
5415;DHT22;2730;51.512;7.504;2022-12-22T06:52:19;9.60;99.90
5415;DHT22;2730;51.512;7.504;2022-12-22T06:54:46;9.60;99.90
5415;DHT22;2730;51.512;7.504;2022-12-22T06:57:12;9.70;99.90
5415;DHT22;2730;51.512;7.504;2022-12-22T06:59:39;9.60;99.90
5415;DHT22;2730;51.512;7.504;2022-12-22T07:02:07;9.60;99.90
5415;DHT22;2730;51.512;7.504;2022-12-22T07:04:34;9.70;99.90
5415;DHT22;2730;51.512;7.504;2022-12-22T07:07:03;9.60;99.90
5415;DHT22;2730;51.512;7.504;2022-12-22T07:09:30;9.70;99.90
5415;DHT22;2730;51.512;7.504;2022-12-22T07:11:56;9.70;99.90
5415;DHT22;2730;51.512;7.504;2022-12-22T07:14:23;9.60;99.90
5415;DHT22;2730;51.512;7.504;2022-12-22T07:16:50;9.60;99.90
5415;DHT22;2730;51.512;7.504;2022-12-22T07:19:17;9.60;99.90
5415;DHT22;2730;51.512;7.504;2022-12-22T07:21:44;9.60;99.90
5415;DHT22;2730;51.512;7.504;2022-12-22T07:24:13;9.60;99.90
5415;DHT22;2730;51.512;7.504;2022-12-22T07:26:41;9.60;99.90
5415;DHT22;2730;51.512;7.504;2022-12-22T07:29:08;9.70;99.90
5415;DHT22;2730;51.512;7.504;2022-12-22T07:31:35;9.70;99.90
5415;DHT22;2730;51.512;7.504;2022-12-22T07:34:02;9.70;99.90
5415;DHT22;2730;51.512;7.504;2022-12-22T07:36:28;9.70;99.90
5415;DHT22;2730;51.512;7.504;2022-12-22T07:38:55;9.70;99.90
5415;DHT22;2730;51.512;7.504;2022-12-22T07:41:23;9.70;99.90
5415;DHT22;2730;51.512;7.504;2022-12-22T07:44:08;9.60;99.90
5415;DHT22;2730;51.512;7.504;2022-12-22T07:46:36;9.70;99.90
5415;DHT22;2730;51.512;7.504;2022-12-22T07:49:04;9.70;99.90
5415;DHT22;2730;51.512;7.504;2022-12-22T07:51:49;9.70;99.90
5415;DHT22;2730;51.512;7.504;2022-12-22T07:54:16;9.70;99.90
5415;DHT22;2730;51.512;7.504;2022-12-22T07:56:45;9.70;99.90
5415;DHT22;2730;51.512;7.504;2022-12-22T07:59:13;9.70;99.90
5415;DHT22;2730;51.512;7.504;2022-12-22T08:01:40;9.80;99.90
5415;DHT22;2730;51.512;7.504;2022-12-22T08:04:07;9.80;99.90
5415;DHT22;2730;51.512;7.504;2022-12-22T08:06:35;9.70;99.90
5415;DHT22;2730;51.512;7.504;2022-12-22T08:09:03;9.70;99.90
5415;DHT22;2730;51.512;7.504;2022-12-22T08:11:30;9.70;99.90
5415;DHT22;2730;51.512;7.504;2022-12-22T08:13:58;9.70;99.90
5415;DHT22;2730;51.512;7.504;2022-12-22T08:16:25;9.70;99.90
5415;DHT22;2730;51.512;7.504;2022-12-22T08:18:52;9.70;99.90
5415;DHT22;2730;51.512;7.504;2022-12-22T08:21:19;9.70;99.90
5415;DHT22;2730;51.512;7.504;2022-12-22T08:23:46;9.70;99.90
5415;DHT22;2730;51.512;7.504;2022-12-22T08:26:16;9.70;99.90
5415;DHT22;2730;51.512;7.504;2022-12-22T08:28:47;9.70;99.90
5415;DHT22;2730;51.512;7.504;2022-12-22T08:31:18;9.70;99.90
5415;DHT22;2730;51.512;7.504;2022-12-22T08:33:46;9.70;99.90
5415;DHT22;2730;51.512;7.504;2022-12-22T08:36:13;9.70;99.90
5415;DHT22;2730;51.512;7.504;2022-12-22T08:38:41;9.70;99.90
5415;DHT22;2730;51.512;7.504;2022-12-22T08:41:09;9.70;99.90
5415;DHT22;2730;51.512;7.504;2022-12-22T08:43:38;9.70;99.90
5415;DHT22;2730;51.512;7.504;2022-12-22T08:46:05;9.70;99.90
5415;DHT22;2730;51.512;7.504;2022-12-22T08:48:33;9.70;99.90
5415;DHT22;2730;51.512;7.504;2022-12-22T08:51:00;9.70;99.90
5415;DHT22;2730;51.512;7.504;2022-12-22T08:53:27;9.70;99.90
5415;DHT22;2730;51.512;7.504;2022-12-22T08:55:55;9.70;99.90
5415;DHT22;2730;51.512;7.504;2022-12-22T08:58:21;9.70;99.90
5415;DHT22;2730;51.512;7.504;2022-12-22T09:00:48;9.70;99.90
5415;DHT22;2730;51.512;7.504;2022-12-22T09:03:15;9.70;99.90
5415;DHT22;2730;51.512;7.504;2022-12-22T09:05:43;9.60;99.90
5415;DHT22;2730;51.512;7.504;2022-12-22T09:08:10;9.60;99.90
5415;DHT22;2730;51.512;7.504;2022-12-22T09:10:40;9.70;99.90
5415;DHT22;2730;51.512;7.504;2022-12-22T09:13:07;9.60;99.90
5415;DHT22;2730;51.512;7.504;2022-12-22T09:15:36;9.70;99.90
5415;DHT22;2730;51.512;7.504;2022-12-22T09:18:03;9.70;99.90
5415;DHT22;2730;51.512;7.504;2022-12-22T09:20:30;9.70;99.90
5415;DHT22;2730;51.512;7.504;2022-12-22T09:22:58;9.70;99.90
5415;DHT22;2730;51.512;7.504;2022-12-22T09:25:25;9.70;99.90
5415;DHT22;2730;51.512;7.504;2022-12-22T09:27:52;9.70;99.90
5415;DHT22;2730;51.512;7.504;2022-12-22T09:30:18;9.70;99.90
5415;DHT22;2730;51.512;7.504;2022-12-22T09:32:45;9.70;99.90
5415;DHT22;2730;51.512;7.504;2022-12-22T09:35:12;9.70;99.90
5415;DHT22;2730;51.512;7.504;2022-12-22T09:37:39;9.70;99.90
5415;DHT22;2730;51.512;7.504;2022-12-22T09:40:09;9.70;99.90
5415;DHT22;2730;51.512;7.504;2022-12-22T09:42:37;9.70;99.90
5415;DHT22;2730;51.512;7.504;2022-12-22T09:45:08;9.80;99.90
5415;DHT22;2730;51.512;7.504;2022-12-22T09:47:39;9.90;99.90
5415;DHT22;2730;51.512;7.504;2022-12-22T09:50:11;10.00;99.90
5415;DHT22;2730;51.512;7.504;2022-12-22T09:52:44;10.10;99.90
5415;DHT22;2730;51.512;7.504;2022-12-22T09:55:24;10.20;99.90
5415;DHT22;2730;51.512;7.504;2022-12-22T09:57:52;10.20;99.90
5415;DHT22;2730;51.512;7.504;2022-12-22T10:00:22;10.20;99.90
5415;DHT22;2730;51.512;7.504;2022-12-22T10:02:55;10.30;99.90
5415;DHT22;2730;51.512;7.504;2022-12-22T10:05:38;10.40;99.90
5415;DHT22;2730;51.512;7.504;2022-12-22T10:08:10;10.40;99.90
5415;DHT22;2730;51.512;7.504;2022-12-22T10:13:54;10.60;99.90
5415;DHT22;2730;51.512;7.504;2022-12-22T10:16:24;10.60;99.90
5415;DHT22;2730;51.512;7.504;2022-12-22T10:18:59;10.60;99.90
5415;DHT22;2730;51.512;7.504;2022-12-22T10:21:26;10.80;99.90
5415;DHT22;2730;51.512;7.504;2022-12-22T10:23:53;10.90;99.90
5415;DHT22;2730;51.512;7.504;2022-12-22T10:26:22;10.90;99.90
5415;DHT22;2730;51.512;7.504;2022-12-22T10:28:56;10.70;99.90
5415;DHT22;2730;51.512;7.504;2022-12-22T10:31:26;10.50;99.90
5415;DHT22;2730;51.512;7.504;2022-12-22T10:33:54;10.40;99.90
5415;DHT22;2730;51.512;7.504;2022-12-22T10:36:23;10.30;99.90
5415;DHT22;2730;51.512;7.504;2022-12-22T10:39:00;10.20;99.90
5415;DHT22;2730;51.512;7.504;2022-12-22T10:41:29;10.20;99.90
5415;DHT22;2730;51.512;7.504;2022-12-22T10:44:01;10.20;99.90
5415;DHT22;2730;51.512;7.504;2022-12-22T10:46:33;10.30;99.90
5415;DHT22;2730;51.512;7.504;2022-12-22T10:49:17;10.20;99.90
5415;DHT22;2730;51.512;7.504;2022-12-22T10:51:46;10.20;99.90
5415;DHT22;2730;51.512;7.504;2022-12-22T10:54:24;10.10;99.90
5415;DHT22;2730;51.512;7.504;2022-12-22T10:56:59;10.10;99.90
5415;DHT22;2730;51.512;7.504;2022-12-22T10:59:27;10.00;99.90
5415;DHT22;2730;51.512;7.504;2022-12-22T11:02:24;10.00;99.90
5415;DHT22;2730;51.512;7.504;2022-12-22T11:04:55;10.00;99.90
5415;DHT22;2730;51.512;7.504;2022-12-22T11:07:27;9.90;99.90
5415;DHT22;2730;51.512;7.504;2022-12-22T11:09:55;9.90;99.90
5415;DHT22;2730;51.512;7.504;2022-12-22T11:12:28;9.90;99.90
5415;DHT22;2730;51.512;7.504;2022-12-22T11:15:03;9.90;99.90
5415;DHT22;2730;51.512;7.504;2022-12-22T11:17:40;9.90;99.90
5415;DHT22;2730;51.512;7.504;2022-12-22T11:20:27;9.90;99.90
5415;DHT22;2730;51.512;7.504;2022-12-22T11:22:59;10.00;99.90
5415;DHT22;2730;51.512;7.504;2022-12-22T11:25:33;9.90;99.90
5415;DHT22;2730;51.512;7.504;2022-12-22T11:28:24;9.80;99.90
5415;DHT22;2730;51.512;7.504;2022-12-22T11:31:01;9.70;99.90
5415;DHT22;2730;51.512;7.504;2022-12-22T11:33:43;9.70;99.90
5415;DHT22;2730;51.512;7.504;2022-12-22T11:36:21;9.60;99.90
5415;DHT22;2730;51.512;7.504;2022-12-22T11:38:54;9.70;99.90
5415;DHT22;2730;51.512;7.504;2022-12-22T11:41:36;9.80;99.90
5415;DHT22;2730;51.512;7.504;2022-12-22T11:44:35;10.00;99.90
5415;DHT22;2730;51.512;7.504;2022-12-22T11:47:12;9.90;99.90
5415;DHT22;2730;51.512;7.504;2022-12-22T11:50:05;10.00;99.90
5415;DHT22;2730;51.512;7.504;2022-12-22T11:52:47;10.00;99.90
5415;DHT22;2730;51.512;7.504;2022-12-22T11:55:27;10.00;99.90
5415;DHT22;2730;51.512;7.504;2022-12-22T12:00:47;10.10;99.90
5415;DHT22;2730;51.512;7.504;2022-12-22T12:03:41;10.00;99.90
5415;DHT22;2730;51.512;7.504;2022-12-22T12:06:21;10.00;99.90
5415;DHT22;2730;51.512;7.504;2022-12-22T12:09:03;10.00;99.90
5415;DHT22;2730;51.512;7.504;2022-12-22T12:11:38;10.10;99.90
5415;DHT22;2730;51.512;7.504;2022-12-22T12:14:16;10.30;99.90
5415;DHT22;2730;51.512;7.504;2022-12-22T12:16:51;10.30;99.90
5415;DHT22;2730;51.512;7.504;2022-12-22T12:19:47;10.10;99.90
5415;DHT22;2730;51.512;7.504;2022-12-22T12:22:25;10.00;99.90
5415;DHT22;2730;51.512;7.504;2022-12-22T12:25:01;9.80;99.90
5415;DHT22;2730;51.512;7.504;2022-12-22T12:27:51;9.70;99.90
5415;DHT22;2730;51.512;7.504;2022-12-22T12:30:21;9.60;99.90
5415;DHT22;2730;51.512;7.504;2022-12-22T12:32:52;9.50;99.90
5415;DHT22;2730;51.512;7.504;2022-12-22T12:35:31;9.60;99.90
5415;DHT22;2730;51.512;7.504;2022-12-22T12:38:04;9.60;99.90
5415;DHT22;2730;51.512;7.504;2022-12-22T12:40:39;9.60;99.90
5415;DHT22;2730;51.512;7.504;2022-12-22T12:43:11;9.60;99.90
5415;DHT22;2730;51.512;7.504;2022-12-22T12:45:40;9.60;99.90
5415;DHT22;2730;51.512;7.504;2022-12-22T12:48:35;9.60;99.90
5415;DHT22;2730;51.512;7.504;2022-12-22T12:57:22;9.40;99.90
5415;DHT22;2730;51.512;7.504;2022-12-22T12:59:50;9.40;99.90
5415;DHT22;2730;51.512;7.504;2022-12-22T13:02:35;9.40;99.90
5415;DHT22;2730;51.512;7.504;2022-12-22T13:05:11;9.50;99.90
5415;DHT22;2730;51.512;7.504;2022-12-22T13:13:48;9.60;99.90
5415;DHT22;2730;51.512;7.504;2022-12-22T13:16:36;9.60;99.90
5415;DHT22;2730;51.512;7.504;2022-12-22T13:19:21;9.60;99.90
5415;DHT22;2730;51.512;7.504;2022-12-22T13:21:49;9.70;99.90
5415;DHT22;2730;51.512;7.504;2022-12-22T13:24:21;9.60;99.90
5415;DHT22;2730;51.512;7.504;2022-12-22T13:26:52;9.60;99.90
5415;DHT22;2730;51.512;7.504;2022-12-22T13:29:27;9.50;99.90
5415;DHT22;2730;51.512;7.504;2022-12-22T13:31:58;9.50;99.90
5415;DHT22;2730;51.512;7.504;2022-12-22T13:34:35;9.50;99.90
5415;DHT22;2730;51.512;7.504;2022-12-22T13:37:12;9.50;99.90
5415;DHT22;2730;51.512;7.504;2022-12-22T13:39:41;9.50;99.90
5415;DHT22;2730;51.512;7.504;2022-12-22T13:42:11;9.50;99.90
5415;DHT22;2730;51.512;7.504;2022-12-22T13:44:39;9.50;99.90
5415;DHT22;2730;51.512;7.504;2022-12-22T13:47:12;9.40;99.90
5415;DHT22;2730;51.512;7.504;2022-12-22T13:49:41;9.40;99.90
5415;DHT22;2730;51.512;7.504;2022-12-22T13:52:11;9.40;99.90
5415;DHT22;2730;51.512;7.504;2022-12-22T13:54:42;9.40;99.90
5415;DHT22;2730;51.512;7.504;2022-12-22T13:57:16;9.30;99.90
5415;DHT22;2730;51.512;7.504;2022-12-22T13:59:45;9.40;99.90
5415;DHT22;2730;51.512;7.504;2022-12-22T14:02:15;9.50;99.90
5415;DHT22;2730;51.512;7.504;2022-12-22T14:04:44;9.50;99.90
5415;DHT22;2730;51.512;7.504;2022-12-22T14:07:13;9.50;99.90
5415;DHT22;2730;51.512;7.504;2022-12-22T14:09:43;9.60;99.90
5415;DHT22;2730;51.512;7.504;2022-12-22T14:12:14;9.60;99.90
5415;DHT22;2730;51.512;7.504;2022-12-22T14:14:45;9.60;99.90
5415;DHT22;2730;51.512;7.504;2022-12-22T14:17:20;9.60;99.90
5415;DHT22;2730;51.512;7.504;2022-12-22T14:19:49;9.70;99.90
5415;DHT22;2730;51.512;7.504;2022-12-22T14:22:19;9.70;99.90
5415;DHT22;2730;51.512;7.504;2022-12-22T14:24:48;9.80;99.90
5415;DHT22;2730;51.512;7.504;2022-12-22T14:27:29;9.80;99.90
5415;DHT22;2730;51.512;7.504;2022-12-22T14:29:59;9.70;99.90
5415;DHT22;2730;51.512;7.504;2022-12-22T14:32:35;9.60;99.90
5415;DHT22;2730;51.512;7.504;2022-12-22T14:35:05;9.50;99.90
5415;DHT22;2730;51.512;7.504;2022-12-22T14:37:40;9.50;99.90
5415;DHT22;2730;51.512;7.504;2022-12-22T14:40:13;9.40;99.90
5415;DHT22;2730;51.512;7.504;2022-12-22T14:42:55;9.40;99.90
5415;DHT22;2730;51.512;7.504;2022-12-22T14:45:23;9.30;99.90
5415;DHT22;2730;51.512;7.504;2022-12-22T14:47:51;9.20;99.90
5415;DHT22;2730;51.512;7.504;2022-12-22T14:50:20;9.20;99.90
5415;DHT22;2730;51.512;7.504;2022-12-22T14:52:49;9.10;99.90
5415;DHT22;2730;51.512;7.504;2022-12-22T14:55:24;9.10;99.90
5415;DHT22;2730;51.512;7.504;2022-12-22T14:57:54;9.00;99.90
5415;DHT22;2730;51.512;7.504;2022-12-22T15:00:33;9.00;99.90
5415;DHT22;2730;51.512;7.504;2022-12-22T15:03:03;8.90;99.90
5415;DHT22;2730;51.512;7.504;2022-12-22T15:05:32;8.90;99.90
5415;DHT22;2730;51.512;7.504;2022-12-22T15:08:01;8.70;99.90
5415;DHT22;2730;51.512;7.504;2022-12-22T15:10:34;8.70;99.90
5415;DHT22;2730;51.512;7.504;2022-12-22T15:13:06;8.70;99.90
5415;DHT22;2730;51.512;7.504;2022-12-22T15:15:37;8.70;99.90
5415;DHT22;2730;51.512;7.504;2022-12-22T15:18:04;8.70;99.90
5415;DHT22;2730;51.512;7.504;2022-12-22T15:20:31;8.70;99.90
5415;DHT22;2730;51.512;7.504;2022-12-22T15:22:58;8.80;99.90
5415;DHT22;2730;51.512;7.504;2022-12-22T15:25:25;8.80;99.90
5415;DHT22;2730;51.512;7.504;2022-12-22T15:27:52;8.90;99.90
5415;DHT22;2730;51.512;7.504;2022-12-22T15:30:21;8.90;99.90
5415;DHT22;2730;51.512;7.504;2022-12-22T15:32:48;8.90;99.90
5415;DHT22;2730;51.512;7.504;2022-12-22T15:35:18;8.90;99.90
5415;DHT22;2730;51.512;7.504;2022-12-22T15:37:45;9.00;99.90
5415;DHT22;2730;51.512;7.504;2022-12-22T15:40:15;8.90;99.90
5415;DHT22;2730;51.512;7.504;2022-12-22T15:42:42;8.70;99.90
5415;DHT22;2730;51.512;7.504;2022-12-22T15:45:10;8.60;99.90
5415;DHT22;2730;51.512;7.504;2022-12-22T15:47:39;8.40;99.90
5415;DHT22;2730;51.512;7.504;2022-12-22T15:50:09;8.40;99.90
5415;DHT22;2730;51.512;7.504;2022-12-22T15:52:36;8.40;99.90
5415;DHT22;2730;51.512;7.504;2022-12-22T15:55:04;8.40;99.90
5415;DHT22;2730;51.512;7.504;2022-12-22T15:57:31;8.40;99.90
5415;DHT22;2730;51.512;7.504;2022-12-22T15:59:58;8.30;99.90
5415;DHT22;2730;51.512;7.504;2022-12-22T16:02:25;8.40;99.90
5415;DHT22;2730;51.512;7.504;2022-12-22T16:04:53;8.30;99.90
5415;DHT22;2730;51.512;7.504;2022-12-22T16:07:20;8.30;99.90
5415;DHT22;2730;51.512;7.504;2022-12-22T16:09:47;8.30;99.90
5415;DHT22;2730;51.512;7.504;2022-12-22T16:12:16;8.40;99.90
5415;DHT22;2730;51.512;7.504;2022-12-22T16:14:46;8.50;99.90
5415;DHT22;2730;51.512;7.504;2022-12-22T16:17:16;8.50;99.90
5415;DHT22;2730;51.512;7.504;2022-12-22T16:19:44;8.50;99.90
5415;DHT22;2730;51.512;7.504;2022-12-22T16:22:13;8.50;99.90
5415;DHT22;2730;51.512;7.504;2022-12-22T16:24:42;8.40;99.90
5415;DHT22;2730;51.512;7.504;2022-12-22T16:27:11;8.40;99.90
5415;DHT22;2730;51.512;7.504;2022-12-22T16:29:39;8.40;99.90
5415;DHT22;2730;51.512;7.504;2022-12-22T16:32:14;8.40;99.90
5415;DHT22;2730;51.512;7.504;2022-12-22T16:34:41;8.40;99.90
5415;DHT22;2730;51.512;7.504;2022-12-22T16:37:08;8.40;99.90
5415;DHT22;2730;51.512;7.504;2022-12-22T16:39:37;8.40;99.90
5415;DHT22;2730;51.512;7.504;2022-12-22T16:42:04;8.50;99.90
5415;DHT22;2730;51.512;7.504;2022-12-22T16:44:31;8.50;99.90
5415;DHT22;2730;51.512;7.504;2022-12-22T16:46:58;8.70;99.90
5415;DHT22;2730;51.512;7.504;2022-12-22T16:49:25;8.80;99.90
5415;DHT22;2730;51.512;7.504;2022-12-22T16:51:52;8.70;99.90
5415;DHT22;2730;51.512;7.504;2022-12-22T16:54:20;8.70;99.90
5415;DHT22;2730;51.512;7.504;2022-12-22T16:56:48;8.70;99.90
5415;DHT22;2730;51.512;7.504;2022-12-22T16:59:16;8.70;99.90
5415;DHT22;2730;51.512;7.504;2022-12-22T17:01:46;8.70;99.90
5415;DHT22;2730;51.512;7.504;2022-12-22T17:04:17;8.80;99.90
5415;DHT22;2730;51.512;7.504;2022-12-22T17:06:45;8.80;99.90
5415;DHT22;2730;51.512;7.504;2022-12-22T17:09:16;8.70;99.90
5415;DHT22;2730;51.512;7.504;2022-12-22T17:11:44;8.70;99.90
5415;DHT22;2730;51.512;7.504;2022-12-22T17:14:25;8.80;99.90
5415;DHT22;2730;51.512;7.504;2022-12-22T17:16:52;8.80;99.90
5415;DHT22;2730;51.512;7.504;2022-12-22T17:19:19;8.80;99.90
5415;DHT22;2730;51.512;7.504;2022-12-22T17:21:47;8.70;99.90
5415;DHT22;2730;51.512;7.504;2022-12-22T17:24:14;8.80;99.90
5415;DHT22;2730;51.512;7.504;2022-12-22T17:26:42;8.70;99.90
5415;DHT22;2730;51.512;7.504;2022-12-22T17:29:13;8.70;99.90
5415;DHT22;2730;51.512;7.504;2022-12-22T17:31:42;8.60;99.90
5415;DHT22;2730;51.512;7.504;2022-12-22T17:34:12;8.60;99.90
5415;DHT22;2730;51.512;7.504;2022-12-22T17:36:41;8.60;99.90
5415;DHT22;2730;51.512;7.504;2022-12-22T17:39:11;8.50;99.90
5415;DHT22;2730;51.512;7.504;2022-12-22T17:41:39;8.50;99.90
5415;DHT22;2730;51.512;7.504;2022-12-22T17:44:11;8.50;99.90
5415;DHT22;2730;51.512;7.504;2022-12-22T17:46:39;8.50;99.90
5415;DHT22;2730;51.512;7.504;2022-12-22T17:49:07;8.50;99.90
5415;DHT22;2730;51.512;7.504;2022-12-22T17:51:34;8.50;99.90
5415;DHT22;2730;51.512;7.504;2022-12-22T17:54:01;8.50;99.90
5415;DHT22;2730;51.512;7.504;2022-12-22T17:56:28;8.50;99.90
5415;DHT22;2730;51.512;7.504;2022-12-22T17:58:56;8.50;99.90
5415;DHT22;2730;51.512;7.504;2022-12-22T18:01:25;8.50;99.90
5415;DHT22;2730;51.512;7.504;2022-12-22T18:03:53;8.60;99.90
5415;DHT22;2730;51.512;7.504;2022-12-22T18:06:24;8.60;99.90
5415;DHT22;2730;51.512;7.504;2022-12-22T18:08:53;8.60;99.90
5415;DHT22;2730;51.512;7.504;2022-12-22T18:11:21;8.60;99.90
5415;DHT22;2730;51.512;7.504;2022-12-22T18:13:48;8.60;99.90
5415;DHT22;2730;51.512;7.504;2022-12-22T18:16:17;8.60;99.90
5415;DHT22;2730;51.512;7.504;2022-12-22T18:18:45;8.70;99.90
5415;DHT22;2730;51.512;7.504;2022-12-22T18:21:14;8.80;99.90
5415;DHT22;2730;51.512;7.504;2022-12-22T18:23:43;8.80;99.90
5415;DHT22;2730;51.512;7.504;2022-12-22T18:26:17;8.90;99.90
5415;DHT22;2730;51.512;7.504;2022-12-22T18:28:45;8.90;99.90
5415;DHT22;2730;51.512;7.504;2022-12-22T18:31:12;8.90;99.90
5415;DHT22;2730;51.512;7.504;2022-12-22T18:33:39;9.00;99.90
5415;DHT22;2730;51.512;7.504;2022-12-22T18:36:11;9.00;99.90
5415;DHT22;2730;51.512;7.504;2022-12-22T18:38:40;8.90;99.90
5415;DHT22;2730;51.512;7.504;2022-12-22T18:41:08;8.90;99.90
5415;DHT22;2730;51.512;7.504;2022-12-22T18:43:35;9.00;99.90
5415;DHT22;2730;51.512;7.504;2022-12-22T18:46:02;9.00;99.90
5415;DHT22;2730;51.512;7.504;2022-12-22T18:48:28;9.00;99.90
5415;DHT22;2730;51.512;7.504;2022-12-22T18:50:55;9.00;99.90
5415;DHT22;2730;51.512;7.504;2022-12-22T18:53:25;9.00;99.90
5415;DHT22;2730;51.512;7.504;2022-12-22T18:55:53;8.90;99.90
5415;DHT22;2730;51.512;7.504;2022-12-22T18:58:21;9.10;99.90
5415;DHT22;2730;51.512;7.504;2022-12-22T19:00:49;9.10;99.90
5415;DHT22;2730;51.512;7.504;2022-12-22T19:03:18;9.10;99.90
5415;DHT22;2730;51.512;7.504;2022-12-22T19:05:46;9.10;99.90
5415;DHT22;2730;51.512;7.504;2022-12-22T19:08:15;9.20;99.90
5415;DHT22;2730;51.512;7.504;2022-12-22T19:10:44;9.20;99.90
5415;DHT22;2730;51.512;7.504;2022-12-22T19:13:27;9.20;99.90
5415;DHT22;2730;51.512;7.504;2022-12-22T19:15:54;9.20;99.90
5415;DHT22;2730;51.512;7.504;2022-12-22T19:18:22;9.20;99.90
5415;DHT22;2730;51.512;7.504;2022-12-22T19:20:50;9.30;99.90
5415;DHT22;2730;51.512;7.504;2022-12-22T19:23:19;9.30;99.90
5415;DHT22;2730;51.512;7.504;2022-12-22T19:25:48;9.30;99.90
5415;DHT22;2730;51.512;7.504;2022-12-22T19:28:23;9.30;99.90
5415;DHT22;2730;51.512;7.504;2022-12-22T19:30:52;9.30;99.90
5415;DHT22;2730;51.512;7.504;2022-12-22T19:33:24;9.40;99.90
5415;DHT22;2730;51.512;7.504;2022-12-22T19:35:52;9.40;99.90
5415;DHT22;2730;51.512;7.504;2022-12-22T19:38:20;9.40;99.90
5415;DHT22;2730;51.512;7.504;2022-12-22T19:40:51;9.50;99.90
5415;DHT22;2730;51.512;7.504;2022-12-22T19:43:19;9.50;99.90
5415;DHT22;2730;51.512;7.504;2022-12-22T19:45:49;9.50;99.90
5415;DHT22;2730;51.512;7.504;2022-12-22T19:48:20;9.40;99.90
5415;DHT22;2730;51.512;7.504;2022-12-22T19:50:47;9.50;99.90
5415;DHT22;2730;51.512;7.504;2022-12-22T19:53:15;9.50;99.90
5415;DHT22;2730;51.512;7.504;2022-12-22T19:55:44;9.50;99.90
5415;DHT22;2730;51.512;7.504;2022-12-22T19:58:14;9.50;99.90
5415;DHT22;2730;51.512;7.504;2022-12-22T20:00:42;9.60;99.90
5415;DHT22;2730;51.512;7.504;2022-12-22T20:03:09;9.60;99.90
5415;DHT22;2730;51.512;7.504;2022-12-22T20:05:39;9.60;99.90
5415;DHT22;2730;51.512;7.504;2022-12-22T20:08:06;9.50;99.90
5415;DHT22;2730;51.512;7.504;2022-12-22T20:10:34;9.50;99.90
5415;DHT22;2730;51.512;7.504;2022-12-22T20:13:05;9.50;99.90
5415;DHT22;2730;51.512;7.504;2022-12-22T20:15:34;9.50;99.90
5415;DHT22;2730;51.512;7.504;2022-12-22T20:18:07;9.40;99.90
5415;DHT22;2730;51.512;7.504;2022-12-22T20:20:36;9.50;99.90
5415;DHT22;2730;51.512;7.504;2022-12-22T20:23:10;9.50;99.90
5415;DHT22;2730;51.512;7.504;2022-12-22T20:25:40;9.60;99.90
5415;DHT22;2730;51.512;7.504;2022-12-22T20:28:13;9.50;99.90
5415;DHT22;2730;51.512;7.504;2022-12-22T20:30:41;9.50;99.90
5415;DHT22;2730;51.512;7.504;2022-12-22T20:33:08;9.50;99.90
5415;DHT22;2730;51.512;7.504;2022-12-22T20:35:36;9.50;99.90
5415;DHT22;2730;51.512;7.504;2022-12-22T20:38:12;9.50;99.90
5415;DHT22;2730;51.512;7.504;2022-12-22T20:40:40;9.50;99.90
5415;DHT22;2730;51.512;7.504;2022-12-22T20:43:11;9.40;99.90
5415;DHT22;2730;51.512;7.504;2022-12-22T20:45:39;9.50;99.90
5415;DHT22;2730;51.512;7.504;2022-12-22T20:48:12;9.50;99.90
5415;DHT22;2730;51.512;7.504;2022-12-22T20:50:42;9.50;99.90
5415;DHT22;2730;51.512;7.504;2022-12-22T20:53:11;9.60;99.90
5415;DHT22;2730;51.512;7.504;2022-12-22T20:55:40;9.60;99.90
5415;DHT22;2730;51.512;7.504;2022-12-22T20:58:13;9.60;99.90
5415;DHT22;2730;51.512;7.504;2022-12-22T21:00:41;9.50;99.90
5415;DHT22;2730;51.512;7.504;2022-12-22T21:03:08;9.60;99.90
5415;DHT22;2730;51.512;7.504;2022-12-22T21:05:35;9.60;99.90
5415;DHT22;2730;51.512;7.504;2022-12-22T21:08:02;9.60;99.90
5415;DHT22;2730;51.512;7.504;2022-12-22T21:10:30;9.60;99.90
5415;DHT22;2730;51.512;7.504;2022-12-22T21:12:57;9.70;99.90
5415;DHT22;2730;51.512;7.504;2022-12-22T21:15:25;9.60;99.90
5415;DHT22;2730;51.512;7.504;2022-12-22T21:17:53;9.60;99.90
5415;DHT22;2730;51.512;7.504;2022-12-22T21:20:22;9.60;99.90
5415;DHT22;2730;51.512;7.504;2022-12-22T21:22:49;9.60;99.90
5415;DHT22;2730;51.512;7.504;2022-12-22T21:25:17;9.70;99.90
5415;DHT22;2730;51.512;7.504;2022-12-22T21:27:46;9.70;99.90
5415;DHT22;2730;51.512;7.504;2022-12-22T21:30:16;9.70;99.90
5415;DHT22;2730;51.512;7.504;2022-12-22T21:32:43;9.80;99.90
5415;DHT22;2730;51.512;7.504;2022-12-22T21:35:15;9.80;99.90
5415;DHT22;2730;51.512;7.504;2022-12-22T21:37:43;9.80;99.90
5415;DHT22;2730;51.512;7.504;2022-12-22T21:40:21;9.80;99.90
5415;DHT22;2730;51.512;7.504;2022-12-22T21:42:50;9.80;99.90
5415;DHT22;2730;51.512;7.504;2022-12-22T21:45:19;9.80;99.90
5415;DHT22;2730;51.512;7.504;2022-12-22T21:47:46;9.80;99.90
5415;DHT22;2730;51.512;7.504;2022-12-22T21:50:18;9.80;99.90
5415;DHT22;2730;51.512;7.504;2022-12-22T21:52:45;9.80;99.90
5415;DHT22;2730;51.512;7.504;2022-12-22T21:55:19;9.80;99.90
5415;DHT22;2730;51.512;7.504;2022-12-22T21:57:46;9.80;99.90
5415;DHT22;2730;51.512;7.504;2022-12-22T22:00:16;9.80;99.90
5415;DHT22;2730;51.512;7.504;2022-12-22T22:02:44;9.80;99.90
5415;DHT22;2730;51.512;7.504;2022-12-22T22:05:23;9.90;99.90
5415;DHT22;2730;51.512;7.504;2022-12-22T22:07:50;9.90;99.90
5415;DHT22;2730;51.512;7.504;2022-12-22T22:10:17;9.80;99.90
5415;DHT22;2730;51.512;7.504;2022-12-22T22:12:45;9.80;99.90
5415;DHT22;2730;51.512;7.504;2022-12-22T22:15:14;9.70;99.90
5415;DHT22;2730;51.512;7.504;2022-12-22T22:17:41;9.80;99.90
5415;DHT22;2730;51.512;7.504;2022-12-22T22:20:12;9.80;99.90
5415;DHT22;2730;51.512;7.504;2022-12-22T22:22:39;9.80;99.90
5415;DHT22;2730;51.512;7.504;2022-12-22T22:25:07;9.80;99.90
5415;DHT22;2730;51.512;7.504;2022-12-22T22:27:34;9.80;99.90
5415;DHT22;2730;51.512;7.504;2022-12-22T22:30:02;9.70;99.90
5415;DHT22;2730;51.512;7.504;2022-12-22T22:32:30;9.70;99.90
5415;DHT22;2730;51.512;7.504;2022-12-22T22:34:57;9.70;99.90
5415;DHT22;2730;51.512;7.504;2022-12-22T22:37:23;9.70;99.90
5415;DHT22;2730;51.512;7.504;2022-12-22T22:39:50;9.70;99.90
5415;DHT22;2730;51.512;7.504;2022-12-22T22:42:17;9.80;99.90
5415;DHT22;2730;51.512;7.504;2022-12-22T22:44:44;9.70;99.90
5415;DHT22;2730;51.512;7.504;2022-12-22T22:47:10;9.70;99.90
5415;DHT22;2730;51.512;7.504;2022-12-22T22:49:39;9.70;99.90
5415;DHT22;2730;51.512;7.504;2022-12-22T22:52:05;9.70;99.90
5415;DHT22;2730;51.512;7.504;2022-12-22T22:54:32;9.80;99.90